Time;durP1;ratioP1;P1;durP2;ratioP2;P2;SDS_P1;SDS_P2;PMS_P1;PMS_P2;Temp;Humidity;BMP_temperature;BMP_pressure;BME280_temperature;BME280_humidity;BME280_pressure;Samples;Min_cycle;Max_cycle;Signal;HPM_P1;HPM_P2
2022/05/24 00:01:27;;;;;;;2.35;0.88;;;;;;;;;;5051351;28;20500;-73
2022/05/24 00:03:56;;;;;;;0.82;0.65;;;;;;;;;;5049589;28;20048;-73
2022/05/24 00:06:27;;;;;;;1.70;0.75;;;;;;;;;;5049426;28;20044;-73
2022/05/24 00:08:55;;;;;;;1.05;0.38;;;;;;;;;;5048254;28;20532;-73
2022/05/24 00:11:31;;;;;;;2.75;0.70;;;;;;;;;;5051692;28;20049;-73
2022/05/24 00:14:00;;;;;;;2.72;0.90;;;;;;;;;;5050552;28;20847;-73
2022/05/24 00:16:29;;;;;;;4.72;0.82;;;;;;;;;;5047134;28;20500;-73
2022/05/24 00:18:57;;;;;;;1.10;0.75;;;;;;;;;;5049220;28;20055;-73
2022/05/24 00:21:27;;;;;;;1.52;0.73;;;;;;;;;;5047395;28;20093;-73
2022/05/24 00:23:55;;;;;;;3.28;1.15;;;;;;;;;;5037039;28;20080;-74
2022/05/24 00:26:27;;;;;;;2.85;0.80;;;;;;;;;;5049008;28;20080;-74
2022/05/24 00:28:55;;;;;;;3.38;1.50;;;;;;;;;;5048673;28;20128;-74
2022/05/24 00:31:23;;;;;;;2.58;1.10;;;;;;;;;;5048665;28;20049;-74
2022/05/24 00:33:52;;;;;;;3.03;1.10;;;;;;;;;;5044675;28;20488;-74
2022/05/24 00:36:20;;;;;;;2.88;0.80;;;;;;;;;;5042520;28;20049;-73
2022/05/24 00:38:50;;;;;;;1.30;0.80;;;;;;;;;;5049174;28;20076;-74
2022/05/24 00:41:25;;;;;;;1.50;0.82;;;;;;;;;;5050217;28;20052;-73
2022/05/24 00:43:55;;;;;;;2.13;1.10;;;;;;;;;;5048585;28;20064;-74
2022/05/24 00:46:25;;;;;;;3.10;1.00;;;;;;;;;;5051989;28;20128;-74
2022/05/24 00:48:56;;;;;;;3.03;0.90;;;;;;;;;;5049378;28;20248;-73
2022/05/24 00:51:27;;;;;;;2.95;1.00;;;;;;;;;;5049782;28;20049;-74
2022/05/24 00:53:57;;;;;;;2.25;1.10;;;;;;;;;;5048674;28;20120;-73
2022/05/24 00:56:35;;;;;;;3.05;0.90;;;;;;;;;;5049419;28;20132;-73
2022/05/24 00:59:05;;;;;;;1.30;0.80;;;;;;;;;;5048608;28;20567;-73
2022/05/24 01:01:36;;;;;;;3.42;1.33;;;;;;;;;;5052735;28;20077;-74
2022/05/24 01:04:04;;;;;;;2.35;1.05;;;;;;;;;;5049977;28;20052;-74
2022/05/24 01:06:33;;;;;;;4.18;1.15;;;;;;;;;;5046275;28;20081;-74
2022/05/24 01:09:04;;;;;;;2.33;1.25;;;;;;;;;;5050373;28;20048;-74
2022/05/24 01:11:34;;;;;;;2.83;1.17;;;;;;;;;;5037588;28;20053;-73
2022/05/24 01:14:03;;;;;;;4.30;1.40;;;;;;;;;;5050503;28;20051;-72
2022/05/24 01:16:31;;;;;;;3.95;1.25;;;;;;;;;;5050752;28;20139;-74
2022/05/24 01:19:00;;;;;;;2.65;1.30;;;;;;;;;;5049304;28;20495;-74
2022/05/24 01:21:28;;;;;;;2.38;1.30;;;;;;;;;;5046158;28;20520;-71
2022/05/24 01:23:59;;;;;;;3.53;1.30;;;;;;;;;;5049641;28;20508;-71
2022/05/24 01:26:36;;;;;;;4.63;1.30;;;;;;;;;;5050778;28;20045;-71
2022/05/24 01:29:06;;;;;;;3.65;1.13;;;;;;;;;;5044559;28;20405;-71
2022/05/24 01:37:03;;;;;;;;;;;;;;;;;;5007666;28;20076;-72
2022/05/24 01:39:31;;;;;;;1.95;1.20;;;;;;;;;;5049466;28;20007;-71
2022/05/24 01:42:01;;;;;;;3.35;1.73;;;;;;;;;;5049361;28;20040;-71
2022/05/24 01:44:32;;;;;;;2.58;1.38;;;;;;;;;;5049084;28;20088;-71
2022/05/24 01:47:01;;;;;;;2.78;1.35;;;;;;;;;;5048343;28;20080;-72
2022/05/24 01:49:32;;;;;;;2.50;1.20;;;;;;;;;;5046937;28;20527;-71
2022/05/24 01:52:03;;;;;;;5.15;1.48;;;;;;;;;;5049708;28;20099;-71
2022/05/24 01:54:32;;;;;;;4.85;2.03;;;;;;;;;;5046349;28;20053;-71
2022/05/24 01:57:04;;;;;;;2.65;1.35;;;;;;;;;;5048323;28;20556;-72
2022/05/24 01:59:33;;;;;;;2.38;1.33;;;;;;;;;;5049227;28;20136;-71
2022/05/24 02:02:02;;;;;;;1.60;1.20;;;;;;;;;;5054174;28;20493;-71
2022/05/24 02:04:32;;;;;;;3.00;1.35;;;;;;;;;;5047535;28;20115;-72
2022/05/24 02:07:01;;;;;;;1.77;1.08;;;;;;;;;;5044132;28;20499;-72
2022/05/24 02:09:30;;;;;;;2.42;1.13;;;;;;;;;;5049668;28;20048;-71
2022/05/24 02:12:00;;;;;;;2.65;1.35;;;;;;;;;;5046165;28;20037;-71
2022/05/24 02:14:32;;;;;;;7.43;1.45;;;;;;;;;;5054230;28;20085;-71
2022/05/24 02:17:03;;;;;;;2.45;1.30;;;;;;;;;;5052431;28;20433;-71
2022/05/24 02:19:34;;;;;;;1.92;1.30;;;;;;;;;;5047386;28;20471;-71
2022/05/24 02:22:04;;;;;;;3.47;1.42;;;;;;;;;;5053647;28;20131;-71
2022/05/24 02:24:32;;;;;;;3.42;1.40;;;;;;;;;;5053263;28;20358;-71
2022/05/24 02:27:00;;;;;;;2.42;1.20;;;;;;;;;;5053242;28;20437;-72
2022/05/24 02:29:31;;;;;;;2.30;1.33;;;;;;;;;;5050764;28;20484;-72
2022/05/24 02:31:59;;;;;;;3.60;1.20;;;;;;;;;;5050973;28;20220;-71
2022/05/24 02:34:28;;;;;;;2.45;1.30;;;;;;;;;;5051374;28;20132;-71
2022/05/24 02:36:56;;;;;;;4.35;1.20;;;;;;;;;;5052896;28;20069;-71
2022/05/24 02:39:24;;;;;;;2.70;1.15;;;;;;;;;;5053028;28;20061;-71
2022/05/24 02:41:52;;;;;;;2.03;1.25;;;;;;;;;;5049187;28;20044;-71
2022/05/24 02:44:20;;;;;;;2.75;1.55;;;;;;;;;;5054768;28;20060;-71
2022/05/24 02:46:50;;;;;;;2.88;1.40;;;;;;;;;;5052890;28;20044;-72
2022/05/24 02:49:18;;;;;;;7.28;1.80;;;;;;;;;;5051320;28;20136;-72
2022/05/24 02:51:47;;;;;;;6.00;1.45;;;;;;;;;;5051907;28;20080;-71
2022/05/24 02:54:15;;;;;;;2.38;1.20;;;;;;;;;;5054017;28;20049;-71
2022/05/24 02:56:44;;;;;;;3.95;1.83;;;;;;;;;;5053583;28;20076;-71
2022/05/24 02:59:12;;;;;;;5.10;1.40;;;;;;;;;;5051433;28;20041;-71
2022/05/24 03:01:41;;;;;;;3.92;1.80;;;;;;;;;;5052366;28;20040;-71
2022/05/24 03:04:10;;;;;;;4.25;1.70;;;;;;;;;;5052408;28;20049;-71
2022/05/24 03:09:36;;;;;;;1.98;1.23;;;;;;;;;;5047939;28;20053;-71
2022/05/24 03:14:53;;;;;;;2.55;1.30;;;;;;;;;;5051428;28;20136;-71
2022/05/24 03:17:21;;;;;;;5.28;1.40;;;;;;;;;;5058045;28;20119;-71
2022/05/24 03:19:51;;;;;;;3.47;1.23;;;;;;;;;;5047852;28;20098;-71
2022/05/24 03:22:20;;;;;;;4.00;1.25;;;;;;;;;;5051485;28;20045;-71
2022/05/24 03:24:48;;;;;;;2.03;1.35;;;;;;;;;;5053347;28;20144;-71
2022/05/24 03:27:17;;;;;;;1.85;1.15;;;;;;;;;;5051994;28;20049;-71
2022/05/24 03:29:47;;;;;;;2.97;1.20;;;;;;;;;;5045983;28;20073;-71
2022/05/24 03:32:17;;;;;;;3.47;1.30;;;;;;;;;;5041613;28;20077;-71
2022/05/24 03:34:46;;;;;;;2.25;1.17;;;;;;;;;;5051601;28;20045;-71
2022/05/24 03:37:17;;;;;;;4.03;1.70;;;;;;;;;;5050461;28;20053;-71
2022/05/24 03:39:45;;;;;;;4.65;1.23;;;;;;;;;;5057886;28;20048;-71
2022/05/24 03:42:14;;;;;;;2.72;1.38;;;;;;;;;;5058316;28;20072;-71
2022/05/24 03:44:42;;;;;;;1.60;0.93;;;;;;;;;;5052467;28;20128;-71
2022/05/24 03:47:11;;;;;;;1.75;1.30;;;;;;;;;;5050725;28;20405;-71
2022/05/24 03:49:40;;;;;;;2.08;1.20;;;;;;;;;;5051565;28;20140;-71
2022/05/24 03:52:08;;;;;;;1.75;1.00;;;;;;;;;;5049629;28;20136;-71
2022/05/24 03:54:38;;;;;;;1.55;1.33;;;;;;;;;;5050538;28;20160;-71
2022/05/24 03:59:52;;;;;;;4.75;1.65;;;;;;;;;;5048739;28;20080;-71
2022/05/24 04:02:21;;;;;;;8.30;1.48;;;;;;;;;;5055341;28;20128;-71
2022/05/24 04:04:49;;;;;;;3.97;1.25;;;;;;;;;;5050608;28;20081;-71
2022/05/24 04:07:18;;;;;;;6.15;1.48;;;;;;;;;;5049881;28;20057;-71
2022/05/24 04:09:47;;;;;;;2.78;1.20;;;;;;;;;;5049977;28;20540;-71
2022/05/24 04:12:16;;;;;;;7.32;1.60;;;;;;;;;;5044602;28;20049;-71
2022/05/24 04:14:44;;;;;;;5.57;1.40;;;;;;;;;;5050208;28;20080;-71
2022/05/24 04:17:13;;;;;;;2.97;1.20;;;;;;;;;;5047375;28;20103;-71
2022/05/24 04:19:41;;;;;;;4.35;1.30;;;;;;;;;;5049278;28;20079;-71
2022/05/24 04:22:09;;;;;;;3.35;1.50;;;;;;;;;;5055022;28;20135;-71
2022/05/24 04:24:38;;;;;;;3.13;1.27;;;;;;;;;;5046831;28;20075;-71
2022/05/24 04:27:07;;;;;;;2.33;1.08;;;;;;;;;;5046834;28;20444;-71
2022/05/24 04:29:36;;;;;;;1.92;1.10;;;;;;;;;;5049766;28;20088;-71
2022/05/24 04:32:04;;;;;;;2.05;1.30;;;;;;;;;;5048651;28;20105;-71
2022/05/24 04:34:33;;;;;;;2.05;1.50;;;;;;;;;;5046792;28;20049;-71
2022/05/24 04:37:01;;;;;;;2.55;1.20;;;;;;;;;;5047833;28;20477;-71
2022/05/24 04:39:31;;;;;;;2.58;1.40;;;;;;;;;;5046984;28;20447;-72
2022/05/24 04:44:46;;;;;;;2.45;1.27;;;;;;;;;;5049994;28;20465;-72
2022/05/24 04:47:16;;;;;;;5.18;1.20;;;;;;;;;;5049022;28;20071;-72
2022/05/24 04:49:46;;;;;;;2.30;1.60;;;;;;;;;;5042960;28;20068;-72
2022/05/24 04:52:15;;;;;;;3.58;1.20;;;;;;;;;;5049570;28;20567;-72
2022/05/24 04:54:44;;;;;;;2.30;1.30;;;;;;;;;;5051695;28;20049;-72
2022/05/24 04:57:13;;;;;;;3.30;1.30;;;;;;;;;;5053863;28;20041;-72
2022/05/24 04:59:42;;;;;;;2.90;1.23;;;;;;;;;;5050134;28;20558;-72
2022/05/24 05:02:16;;;;;;;;;;;;;;;;;;5050427;28;20041;-72
2022/05/24 05:04:46;;;;;;;2.67;1.60;;;;;;;;;;5050993;28;19979;-72
2022/05/24 05:07:19;;;;;;;2.15;1.20;;;;;;;;;;5047531;28;20854;-72
2022/05/24 05:09:47;;;;;;;2.67;1.63;;;;;;;;;;5049612;28;20053;-72
2022/05/24 05:12:16;;;;;;;2.88;1.30;;;;;;;;;;5049430;28;20489;-72
2022/05/24 05:14:44;;;;;;;5.30;1.50;;;;;;;;;;5044277;28;20132;-72
2022/05/24 05:17:16;;;;;;;1.92;1.00;;;;;;;;;;5054896;28;20043;-72
2022/05/24 05:19:46;;;;;;;7.10;1.33;;;;;;;;;;5043056;28;20096;-72
2022/05/24 05:22:20;;;;;;;4.28;1.48;;;;;;;;;;5046794;28;20102;-72
2022/05/24 05:24:49;;;;;;;2.50;1.52;;;;;;;;;;5053073;28;20083;-72
2022/05/24 05:27:18;;;;;;;6.20;1.67;;;;;;;;;;5049302;28;20083;-72
2022/05/24 05:32:32;;;;;;;11.48;2.03;;;;;;;;;;5048924;28;20484;-72
2022/05/24 05:35:02;;;;;;;6.18;1.50;;;;;;;;;;5050996;28;20135;-72
2022/05/24 05:37:31;;;;;;;5.45;1.73;;;;;;;;;;5045020;28;20079;-72
2022/05/24 05:40:01;;;;;;;3.45;1.65;;;;;;;;;;5050643;28;20128;-72
2022/05/24 05:42:29;;;;;;;2.63;1.40;;;;;;;;;;5046657;28;20097;-72
2022/05/24 05:44:57;;;;;;;2.78;1.27;;;;;;;;;;5051529;28;20092;-72
2022/05/24 05:47:26;;;;;;;4.32;1.25;;;;;;;;;;5045543;28;20136;-72
2022/05/24 05:49:54;;;;;;;4.55;1.45;;;;;;;;;;5048324;28;20049;-72
2022/05/24 05:52:24;;;;;;;4.85;1.65;;;;;;;;;;5050315;28;20099;-72
2022/05/24 05:54:52;;;;;;;2.97;1.35;;;;;;;;;;5051256;28;20048;-72
2022/05/24 05:57:20;;;;;;;5.93;1.60;;;;;;;;;;5070057;28;20049;-72
2022/05/24 05:59:49;;;;;;;3.13;1.50;;;;;;;;;;5050738;28;20064;-72
2022/05/24 06:02:17;;;;;;;3.58;1.60;;;;;;;;;;5047812;28;20048;-72
2022/05/24 06:04:46;;;;;;;2.58;1.33;;;;;;;;;;5049010;28;20052;-72
2022/05/24 06:07:15;;;;;;;4.07;1.50;;;;;;;;;;5046244;28;20465;-72
2022/05/24 06:09:45;;;;;;;5.90;1.20;;;;;;;;;;5046203;28;20151;-72
2022/05/24 06:12:14;;;;;;;2.75;1.38;;;;;;;;;;5047774;28;20351;-72
2022/05/24 06:14:42;;;;;;;1.75;1.05;;;;;;;;;;5050321;28;20095;-72
2022/05/24 06:17:26;;;;;;;1.15;0.93;;;;;;;;;;5048119;28;20067;-72
2022/05/24 06:19:54;;;;;;;2.90;1.65;;;;;;;;;;5049170;28;20111;-71
2022/05/24 06:22:22;;;;;;;2.40;1.23;;;;;;;;;;5045475;28;20081;-72
2022/05/24 06:24:52;;;;;;;3.33;1.30;;;;;;;;;;5048184;28;20124;-72
2022/05/24 06:27:22;;;;;;;3.88;1.20;;;;;;;;;;5048449;28;20051;-72
2022/05/24 06:29:50;;;;;;;2.42;1.08;;;;;;;;;;5047897;28;20138;-72
2022/05/24 06:32:19;;;;;;;1.88;1.10;;;;;;;;;;5049936;28;20111;-71
2022/05/24 06:34:48;;;;;;;1.25;0.80;;;;;;;;;;5049758;28;20049;-71
2022/05/24 06:37:18;;;;;;;2.13;1.00;;;;;;;;;;5048691;28;20139;-71
2022/05/24 06:39:46;;;;;;;3.30;1.30;;;;;;;;;;5049864;28;20049;-72
2022/05/24 06:42:17;;;;;;;3.08;1.23;;;;;;;;;;5050655;28;20424;-71
2022/05/24 06:44:45;;;;;;;2.75;1.30;;;;;;;;;;5048251;28;20143;-71
2022/05/24 06:47:14;;;;;;;1.60;1.25;;;;;;;;;;5047991;28;20068;-72
2022/05/24 06:49:49;;;;;;;1.65;1.30;;;;;;;;;;5039903;28;20049;-72
2022/05/24 06:52:17;;;;;;;5.47;1.35;;;;;;;;;;5048747;28;20055;-73
2022/05/24 06:54:46;;;;;;;2.95;1.20;;;;;;;;;;5050095;28;20049;-72
2022/05/24 06:57:17;;;;;;;2.42;1.20;;;;;;;;;;5048517;28;20049;-72
2022/05/24 07:02:32;;;;;;;4.95;1.50;;;;;;;;;;5053120;28;20148;-72
2022/05/24 07:05:02;;;;;;;4.13;1.80;;;;;;;;;;5051812;28;20041;-72
2022/05/24 07:07:32;;;;;;;3.55;1.67;;;;;;;;;;5049257;28;20438;-72
2022/05/24 07:10:01;;;;;;;3.75;1.77;;;;;;;;;;5052193;28;20049;-72
2022/05/24 07:12:32;;;;;;;4.43;2.30;;;;;;;;;;5053328;28;20041;-72
2022/05/24 07:15:01;;;;;;;3.70;1.35;;;;;;;;;;5053154;28;20049;-72
2022/05/24 07:17:29;;;;;;;2.75;1.48;;;;;;;;;;5043066;28;20045;-72
2022/05/24 07:19:58;;;;;;;3.80;1.88;;;;;;;;;;5048481;28;20055;-72
2022/05/24 07:22:27;;;;;;;4.38;1.70;;;;;;;;;;5052305;28;20076;-72
2022/05/24 07:24:56;;;;;;;6.45;2.05;;;;;;;;;;5052314;28;20060;-72
2022/05/24 07:27:25;;;;;;;2.75;1.60;;;;;;;;;;5051767;28;20090;-71
2022/05/24 07:29:56;;;;;;;5.55;1.80;;;;;;;;;;5052242;28;20071;-72
2022/05/24 07:32:24;;;;;;;3.33;1.75;;;;;;;;;;5047026;28;20154;-72
2022/05/24 07:34:53;;;;;;;5.40;1.65;;;;;;;;;;5050002;28;20119;-71
2022/05/24 07:37:23;;;;;;;3.42;1.45;;;;;;;;;;5050370;28;20079;-72
2022/05/24 07:48:15;;;;;;;2.42;1.20;;;;;;;;;;5051272;28;20136;-71
2022/05/24 07:50:44;;;;;;;3.08;1.88;;;;;;;;;;5051648;28;20049;-71
2022/05/24 07:53:13;;;;;;;2.47;1.70;;;;;;;;;;5050268;28;20037;-71
2022/05/24 07:55:42;;;;;;;4.53;1.60;;;;;;;;;;5049579;28;20506;-73
2022/05/24 07:58:11;;;;;;;3.22;1.60;;;;;;;;;;5048065;28;20045;-71
2022/05/24 08:00:41;;;;;;;5.53;2.63;;;;;;;;;;5049680;28;20048;-74
2022/05/24 08:03:10;;;;;;;7.03;2.40;;;;;;;;;;5050110;28;20053;-73
2022/05/24 08:05:39;;;;;;;6.75;2.13;;;;;;;;;;5047053;28;20085;-73
2022/05/24 08:08:09;;;;;;;2.58;1.55;;;;;;;;;;5049219;28;20500;-74
2022/05/24 08:10:38;;;;;;;1.92;1.20;;;;;;;;;;5047313;28;20131;-74
2022/05/24 08:13:08;;;;;;;5.38;1.77;;;;;;;;;;5051028;28;20045;-75
2022/05/24 08:15:37;;;;;;;8.60;1.50;;;;;;;;;;5052683;28;20087;-71
2022/05/24 08:18:08;;;;;;;3.13;1.20;;;;;;;;;;5053566;28;20076;-72
2022/05/24 08:20:37;;;;;;;5.43;1.52;;;;;;;;;;5049344;28;20044;-73
2022/05/24 08:23:06;;;;;;;4.35;1.15;;;;;;;;;;5056216;28;20093;-72
2022/05/24 08:25:39;;;;;;;4.78;1.50;;;;;;;;;;5048639;28;20052;-72
2022/05/24 08:28:08;;;;;;;3.58;1.60;;;;;;;;;;5043855;28;20061;-72
2022/05/24 08:30:39;;;;;;;3.97;1.52;;;;;;;;;;5052985;28;20056;-72
2022/05/24 08:33:09;;;;;;;4.30;1.67;;;;;;;;;;5044818;28;20053;-72
2022/05/24 08:35:38;;;;;;;1.98;1.33;;;;;;;;;;5056610;28;20428;-71
2022/05/24 08:38:06;;;;;;;2.35;1.42;;;;;;;;;;5048408;28;20492;-71
2022/05/24 08:40:36;;;;;;;5.80;1.35;;;;;;;;;;5051037;28;20532;-71
2022/05/24 08:43:18;;;;;;;2.45;1.50;;;;;;;;;;5051003;28;20057;-72
2022/05/24 08:48:44;;;;;;;3.47;1.60;;;;;;;;;;5051009;28;20048;-71
2022/05/24 08:51:15;;;;;;;2.83;1.75;;;;;;;;;;5046580;28;20053;-72
2022/05/24 08:53:46;;;;;;;3.25;1.58;;;;;;;;;;5050318;28;20114;-73
2022/05/24 08:56:17;;;;;;;2.53;1.73;;;;;;;;;;5051718;28;20087;-72
2022/05/24 08:58:48;;;;;;;6.00;1.95;;;;;;;;;;5048120;28;20144;-73
2022/05/24 09:01:24;;;;;;;3.30;1.60;;;;;;;;;;5050980;28;20135;-72
2022/05/24 09:03:54;;;;;;;4.00;1.55;;;;;;;;;;5046514;28;20049;-72
2022/05/24 09:06:32;;;;;;;3.58;1.40;;;;;;;;;;5044998;28;20093;-72
2022/05/24 09:09:06;;;;;;;2.83;1.30;;;;;;;;;;5048825;28;20102;-71
2022/05/24 09:11:41;;;;;;;2.28;1.30;;;;;;;;;;5045261;28;20111;-71
2022/05/24 09:14:09;;;;;;;;;;;;;;;;;;5047205;28;20884;-71
2022/05/24 09:16:43;;;;;;;1.98;1.20;;;;;;;;;;5047243;28;19945;-71
2022/05/24 09:19:17;;;;;;;4.75;1.35;;;;;;;;;;5049788;28;20099;-70
2022/05/24 09:21:47;;;;;;;3.70;0.98;;;;;;;;;;5040299;28;20144;-70
2022/05/24 09:24:20;;;;;;;5.00;1.58;;;;;;;;;;5049505;28;20052;-70
2022/05/24 09:27:04;;;;;;;1.48;1.00;;;;;;;;;;5048317;28;20049;-71
2022/05/24 09:29:33;;;;;;;1.90;1.05;;;;;;;;;;5029592;28;20126;-71
2022/05/24 09:32:05;;;;;;;1.77;1.08;;;;;;;;;;5048076;28;20098;-71
2022/05/24 09:34:36;;;;;;;2.78;1.00;;;;;;;;;;5044620;28;20060;-71
2022/05/24 09:37:07;;;;;;;2.13;1.10;;;;;;;;;;5040953;28;20045;-71
2022/05/24 09:39:37;;;;;;;2.40;0.98;;;;;;;;;;5042211;28;20053;-71
2022/05/24 09:42:07;;;;;;;3.80;1.40;;;;;;;;;;5046992;28;20063;-70
2022/05/24 09:44:47;;;;;;;2.63;1.02;;;;;;;;;;5045296;28;20103;-70
2022/05/24 09:47:24;;;;;;;3.05;1.17;;;;;;;;;;5047549;28;20461;-71
2022/05/24 09:49:54;;;;;;;2.08;0.95;;;;;;;;;;5043821;28;20060;-70
2022/05/24 09:52:23;;;;;;;4.20;1.20;;;;;;;;;;5047850;28;20393;-70
2022/05/24 09:54:52;;;;;;;1.95;1.00;;;;;;;;;;5045613;28;20070;-70
2022/05/24 09:57:23;;;;;;;1.30;0.85;;;;;;;;;;5044731;28;20049;-71
2022/05/24 09:59:59;;;;;;;2.35;1.30;;;;;;;;;;5047901;28;20049;-70
2022/05/24 10:02:28;;;;;;;1.45;1.00;;;;;;;;;;5050103;28;20048;-71
2022/05/24 10:05:00;;;;;;;2.75;1.05;;;;;;;;;;5047805;28;20141;-70
2022/05/24 10:07:31;;;;;;;2.53;0.98;;;;;;;;;;5044931;28;20060;-70
2022/05/24 10:10:03;;;;;;;1.98;0.93;;;;;;;;;;5047512;28;20084;-70
2022/05/24 10:12:41;;;;;;;12.30;1.10;;;;;;;;;;5047139;28;20053;-70
2022/05/24 10:15:22;;;;;;;1.45;1.00;;;;;;;;;;5062902;28;20051;-70
2022/05/24 10:17:58;;;;;;;2.08;1.20;;;;;;;;;;5044139;28;20400;-70
2022/05/24 10:20:32;;;;;;;3.08;1.20;;;;;;;;;;5045626;28;20495;-70
2022/05/24 10:23:04;;;;;;;4.43;1.42;;;;;;;;;;5048629;28;20053;-70
2022/05/24 10:25:37;;;;;;;5.22;1.42;;;;;;;;;;5047457;28;20053;-70
2022/05/24 10:28:14;;;;;;;2.97;1.38;;;;;;;;;;5045151;28;20076;-70
2022/05/24 10:30:48;;;;;;;3.80;1.13;;;;;;;;;;5045276;28;20083;-70
2022/05/24 10:39:08;;;;;;;3.92;1.15;;;;;;;;;;5045643;28;20439;-70
2022/05/24 10:41:41;;;;;;;3.13;1.05;;;;;;;;;;5046680;28;20103;-70
2022/05/24 10:44:13;;;;;;;1.92;1.17;;;;;;;;;;5052017;28;20107;-70
2022/05/24 10:46:44;;;;;;;4.05;1.10;;;;;;;;;;5049261;28;20041;-70
2022/05/24 10:49:18;;;;;;;1.77;1.23;;;;;;;;;;5051556;28;20044;-70
2022/05/24 10:51:50;;;;;;;2.42;1.48;;;;;;;;;;5047607;28;20084;-70
2022/05/24 10:54:26;;;;;;;2.47;0.90;;;;;;;;;;5051071;28;20049;-70
2022/05/24 10:56:55;;;;;;;2.70;1.00;;;;;;;;;;5046882;28;20087;-70
2022/05/24 10:59:30;;;;;;;4.05;1.13;;;;;;;;;;5049291;28;20493;-70
2022/05/24 11:02:01;;;;;;;2.45;1.10;;;;;;;;;;5051806;28;20048;-70
2022/05/24 11:04:35;;;;;;;1.40;1.05;;;;;;;;;;5058555;28;20489;-70
2022/05/24 11:07:11;;;;;;;2.38;1.00;;;;;;;;;;5044792;28;20268;-70
2022/05/24 11:09:43;;;;;;;1.55;1.08;;;;;;;;;;5049487;28;20463;-70
2022/05/24 11:12:17;;;;;;;4.53;1.00;;;;;;;;;;5049963;28;20055;-70
2022/05/24 11:14:48;;;;;;;1.92;1.13;;;;;;;;;;5051003;28;20545;-70
2022/05/24 11:17:18;;;;;;;3.05;1.20;;;;;;;;;;5051253;28;20049;-70
2022/05/24 11:19:49;;;;;;;2.40;1.45;;;;;;;;;;5058968;28;20049;-70
2022/05/24 11:22:24;;;;;;;3.33;1.20;;;;;;;;;;5051285;28;20052;-71
2022/05/24 11:24:55;;;;;;;2.08;1.40;;;;;;;;;;5051402;28;20099;-71
2022/05/24 11:27:26;;;;;;;1.55;1.20;;;;;;;;;;5052225;28;20056;-71
2022/05/24 11:29:56;;;;;;;3.10;1.10;;;;;;;;;;5039441;28;20107;-71
2022/05/24 11:32:33;;;;;;;4.90;1.38;;;;;;;;;;5048636;28;20045;-70
2022/05/24 11:35:04;;;;;;;1.60;1.50;;;;;;;;;;5048523;28;20060;-70
2022/05/24 11:37:36;;;;;;;2.28;1.17;;;;;;;;;;5050354;28;20477;-70
2022/05/24 11:40:38;;;;;;;2.40;1.23;;;;;;;;;;5053662;28;20130;-70
2022/05/24 11:43:08;;;;;;;3.60;1.30;;;;;;;;;;4989591;28;20533;-70
2022/05/24 11:45:55;;;;;;;1.90;1.33;;;;;;;;;;4991700;28;20137;-71
2022/05/24 11:48:24;;;;;;;2.25;1.30;;;;;;;;;;5021319;28;20372;-71
2022/05/24 11:50:53;;;;;;;1.30;0.98;;;;;;;;;;5048466;28;20081;-72
2022/05/24 11:53:37;;;;;;;2.58;1.30;;;;;;;;;;5049270;28;20098;-71
2022/05/24 11:56:19;;;;;;;2.58;1.42;;;;;;;;;;5051235;28;20048;-71
2022/05/24 11:58:50;;;;;;;2.90;1.55;;;;;;;;;;5046687;28;20057;-71
2022/05/24 12:01:37;;;;;;;2.42;1.42;;;;;;;;;;5052939;28;20063;-71
2022/05/24 12:09:57;;;;;;;2.35;1.50;;;;;;;;;;5042305;28;20052;-71
2022/05/24 12:12:31;;;;;;;1.98;1.30;;;;;;;;;;5046556;28;20042;-71
2022/05/24 12:15:16;;;;;;;2.83;1.50;;;;;;;;;;5048559;28;20048;-71
2022/05/24 12:17:46;;;;;;;1.42;0.88;;;;;;;;;;5051061;28;20049;-71
2022/05/24 12:20:28;;;;;;;1.38;0.90;;;;;;;;;;5049698;28;20060;-71
2022/05/24 12:23:16;;;;;;;1.52;0.70;;;;;;;;;;5044135;28;20056;-71
2022/05/24 12:25:55;;;;;;;1.08;0.70;;;;;;;;;;5044675;28;20040;-71
2022/05/24 12:28:26;;;;;;;2.47;0.60;;;;;;;;;;5050541;28;20049;-69
2022/05/24 12:30:57;;;;;;;1.95;0.98;;;;;;;;;;5048974;28;20424;-70
2022/05/24 12:33:37;;;;;;;0.95;0.40;;;;;;;;;;5054402;28;20059;-70
2022/05/24 12:36:20;;;;;;;1.60;0.77;;;;;;;;;;5043729;28;20356;-71
2022/05/24 12:38:50;;;;;;;0.93;0.60;;;;;;;;;;5047567;28;20053;-70
2022/05/24 12:41:25;;;;;;;2.35;0.60;;;;;;;;;;5044880;28;20196;-71
2022/05/24 12:43:56;;;;;;;1.38;0.60;;;;;;;;;;5042026;28;20073;-70
2022/05/24 12:46:29;;;;;;;0.80;0.60;;;;;;;;;;5041464;28;20133;-70
2022/05/24 12:49:02;;;;;;;0.50;0.50;;;;;;;;;;5046126;28;20051;-71
2022/05/24 12:51:31;;;;;;;1.20;0.63;;;;;;;;;;5045748;28;20053;-71
2022/05/24 12:54:09;;;;;;;1.33;0.40;;;;;;;;;;5041230;28;20045;-70
2022/05/24 12:56:39;;;;;;;1.15;0.50;;;;;;;;;;5039628;28;20549;-70
2022/05/24 12:59:12;;;;;;;1.23;0.60;;;;;;;;;;5039194;28;20508;-70
2022/05/24 13:01:43;;;;;;;0.85;0.68;;;;;;;;;;5041402;28;20061;-70
2022/05/24 13:04:15;;;;;;;1.60;1.00;;;;;;;;;;5044009;28;20501;-70
2022/05/24 13:06:45;;;;;;;2.55;0.68;;;;;;;;;;5035525;28;20076;-70
2022/05/24 13:09:16;;;;;;;3.30;0.80;;;;;;;;;;5037202;28;20080;-70
2022/05/24 13:11:47;;;;;;;1.38;0.60;;;;;;;;;;5045715;28;20052;-71
2022/05/24 13:14:20;;;;;;;1.10;0.70;;;;;;;;;;5044541;28;20079;-71
2022/05/24 13:16:49;;;;;;;1.50;0.90;;;;;;;;;;5044452;28;20048;-71
2022/05/24 13:19:18;;;;;;;0.98;0.70;;;;;;;;;;5046557;28;20080;-71
2022/05/24 13:21:55;;;;;;;0.90;0.73;;;;;;;;;;5043358;28;20049;-71
2022/05/24 13:24:25;;;;;;;2.00;0.82;;;;;;;;;;5048477;28;20500;-71
2022/05/24 13:27:04;;;;;;;2.15;0.85;;;;;;;;;;5058478;28;20052;-72
2022/05/24 13:33:33;;;;;;;3.40;0.70;;;;;;;;;;5025408;28;20052;-71
2022/05/24 13:35:08;;;;;;;2.53;0.75;;;;;;;;;;5039207;28;20692;-71
2022/05/24 13:37:50;;;;;;;1.40;0.80;;;;;;;;;;5049968;28;20041;-71
2022/05/24 13:40:20;;;;;;;1.80;0.90;;;;;;;;;;5039318;28;20148;-72
2022/05/24 13:42:57;;;;;;;0.98;0.70;;;;;;;;;;5043934;28;20049;-70
2022/05/24 13:45:27;;;;;;;0.70;0.70;;;;;;;;;;5042276;28;20048;-70
2022/05/24 13:47:57;;;;;;;1.83;0.82;;;;;;;;;;5044291;28;20052;-71
2022/05/24 13:50:34;;;;;;;0.93;0.65;;;;;;;;;;5047376;28;20080;-71
2022/05/24 13:53:04;;;;;;;1.20;0.80;;;;;;;;;;5041256;28;20134;-71
2022/05/24 13:55:34;;;;;;;1.27;0.80;;;;;;;;;;5043028;28;21138;-71
2022/05/24 13:58:06;;;;;;;1.48;0.80;;;;;;;;;;5041241;28;20057;-71
2022/05/24 14:00:42;;;;;;;1.75;0.82;;;;;;;;;;5042259;28;20052;-71
2022/05/24 14:03:24;;;;;;;1.75;0.85;;;;;;;;;;5046349;28;20053;-70
2022/05/24 14:06:07;;;;;;;1.02;0.93;;;;;;;;;;5046611;28;20045;-70
2022/05/24 14:08:45;;;;;;;2.70;0.90;;;;;;;;;;5042697;28;20084;-70
2022/05/24 14:11:15;;;;;;;5.70;1.33;;;;;;;;;;5046270;28;20493;-71
2022/05/24 14:13:46;;;;;;;1.35;0.90;;;;;;;;;;5054584;28;20056;-70
2022/05/24 14:16:16;;;;;;;1.38;0.80;;;;;;;;;;5043665;28;20045;-71
2022/05/24 14:18:45;;;;;;;0.82;0.80;;;;;;;;;;5043336;28;20045;-70
2022/05/24 14:21:15;;;;;;;1.08;0.85;;;;;;;;;;5049792;28;20179;-71
2022/05/24 14:23:43;;;;;;;1.98;1.08;;;;;;;;;;5042383;28;20095;-71
2022/05/24 14:26:12;;;;;;;1.60;1.08;;;;;;;;;;5051747;28;20099;-71
2022/05/24 14:28:40;;;;;;;1.23;1.05;;;;;;;;;;5050247;28;20504;-71
2022/05/24 14:31:13;;;;;;;2.45;1.17;;;;;;;;;;5048197;28;20485;-70
2022/05/24 14:33:42;;;;;;;2.55;1.20;;;;;;;;;;5058425;28;20362;-70
2022/05/24 14:36:10;;;;;;;2.00;1.08;;;;;;;;;;5047540;28;20052;-71
2022/05/24 14:38:40;;;;;;;2.67;0.80;;;;;;;;;;5047372;28;20071;-70
2022/05/24 14:41:21;;;;;;;1.40;1.08;;;;;;;;;;5050439;28;20045;-70
2022/05/24 14:43:51;;;;;;;4.40;1.00;;;;;;;;;;5049227;28;20053;-70
2022/05/24 14:46:22;;;;;;;2.67;1.13;;;;;;;;;;5047418;28;20072;-70
2022/05/24 14:48:51;;;;;;;2.55;1.02;;;;;;;;;;5049880;28;20139;-70
2022/05/24 14:51:23;;;;;;;2.08;0.95;;;;;;;;;;5052925;28;20439;-71
2022/05/24 14:53:52;;;;;;;1.92;1.23;;;;;;;;;;5050605;28;20444;-69
2022/05/24 14:56:35;;;;;;;2.65;1.10;;;;;;;;;;5045467;28;20570;-69
2022/05/24 14:59:03;;;;;;;1.75;1.05;;;;;;;;;;5041098;28;20099;-69
2022/05/24 15:01:33;;;;;;;1.48;0.90;;;;;;;;;;5047008;28;20044;-69
2022/05/24 15:04:02;;;;;;;1.52;0.90;;;;;;;;;;5047551;28;20044;-69
2022/05/24 15:06:30;;;;;;;1.25;0.95;;;;;;;;;;5046708;28;20045;-71
2022/05/24 15:17:33;;;;;;;0.88;0.80;;;;;;;;;;5050444;28;20118;-71
2022/05/24 15:20:03;;;;;;;2.05;1.17;;;;;;;;;;5048043;28;20106;-72
2022/05/24 15:22:32;;;;;;;1.83;0.80;;;;;;;;;;5046760;28;20045;-71
2022/05/24 15:25:01;;;;;;;2.47;1.30;;;;;;;;;;5048482;28;20061;-71
2022/05/24 15:27:30;;;;;;;2.53;1.10;;;;;;;;;;5052589;28;20045;-71
2022/05/24 15:29:59;;;;;;;1.83;1.08;;;;;;;;;;5045104;28;20045;-68
2022/05/24 15:32:29;;;;;;;13.32;2.15;;;;;;;;;;5051160;28;20049;-69
2022/05/24 15:34:57;;;;;;;2.03;1.10;;;;;;;;;;5047986;28;20048;-69
2022/05/24 15:37:25;;;;;;;2.55;1.70;;;;;;;;;;5050026;28;20049;-68
2022/05/24 15:39:54;;;;;;;2.13;1.27;;;;;;;;;;5038031;28;20118;-68
2022/05/24 15:42:22;;;;;;;3.55;1.40;;;;;;;;;;5048872;28;20041;-69
2022/05/24 15:44:51;;;;;;;1.88;1.35;;;;;;;;;;5046945;28;20048;-69
2022/05/24 15:47:19;;;;;;;1.23;0.88;;;;;;;;;;5041879;28;20049;-69
2022/05/24 15:49:49;;;;;;;3.08;1.30;;;;;;;;;;5049142;28;20057;-69
2022/05/24 15:52:18;;;;;;;1.40;1.10;;;;;;;;;;5046498;28;20060;-69
2022/05/24 15:54:47;;;;;;;2.25;1.35;;;;;;;;;;5047721;28;20111;-69
2022/05/24 15:57:15;;;;;;;2.88;1.55;;;;;;;;;;5046361;28;20049;-68
2022/05/24 15:59:44;;;;;;;2.63;1.60;;;;;;;;;;5040387;28;20111;-68
2022/05/24 16:02:13;;;;;;;2.42;1.50;;;;;;;;;;5048650;28;20041;-68